Time;durP1;ratioP1;P1;durP2;ratioP2;P2;SDS_P1;SDS_P2;PMS_P1;PMS_P2;Temp;Humidity;BMP_temperature;BMP_pressure;BME280_temperature;BME280_humidity;BME280_pressure;Samples;Min_cycle;Max_cycle;Signal;HPM_P1;HPM_P2
2022/03/10 00:00:32;;;;;;;27.33;9.63;;;;;;;-145.69;76.83;73488.31;5072793;28;20199;-75
2022/03/10 00:02:58;;;;;;;26.23;9.87;;;;;;;-145.69;76.74;73510.22;5073137;28;20206;-74
2022/03/10 00:05:25;;;;;;;26.80;10.10;;;;;;;-145.69;75.72;73508.22;5072657;28;20200;-75
2022/03/10 00:07:53;;;;;;;23.57;9.10;;;;;;;-145.69;76.36;73522.16;5072893;28;20290;-75
2022/03/10 00:10:20;;;;;;;27.07;9.30;;;;;;;-145.69;75.52;73508.22;5070780;28;20286;-74
2022/03/10 00:12:51;;;;;;;26.77;8.87;;;;;;;-145.69;75.72;73520.16;5072656;28;20234;-74
2022/03/10 00:15:20;;;;;;;21.40;8.47;;;;;;;-145.69;77.42;73552.03;5072581;28;20199;-75
2022/03/10 00:17:46;;;;;;;20.50;8.30;;;;;;;-145.69;77.96;73548.03;5072841;28;20222;-74
2022/03/10 00:20:13;;;;;;;20.70;7.77;;;;;;;-145.69;77.69;73548.03;5072170;28;20202;-74
2022/03/10 00:22:50;;;;;;;23.43;8.53;;;;;;;-145.69;76.67;73528.13;5072681;28;20249;-74
2022/03/10 00:25:18;;;;;;;19.13;7.93;;;;;;;-145.69;77.92;73546.06;5072828;28;20198;-74
2022/03/10 00:27:48;;;;;;;19.33;8.00;;;;;;;-145.69;75.96;73512.22;5072751;28;20564;-75
2022/03/10 00:30:16;;;;;;;24.37;8.07;;;;;;;-145.69;75.81;73540.06;5072808;28;20210;-74
2022/03/10 00:32:44;;;;;;;21.80;8.80;;;;;;;-145.69;75.75;73538.09;5072916;28;20199;-74
2022/03/10 00:35:10;;;;;;;19.20;7.57;;;;;;;-145.69;75.55;73542.06;5072282;28;20199;-75
2022/03/10 00:37:37;;;;;;;24.87;8.53;;;;;;;-145.69;74.63;73528.13;5072906;28;20230;-75
2022/03/10 00:40:05;;;;;;;19.60;7.27;;;;;;;-145.69;73.28;73500.25;5072657;28;20199;-74
2022/03/10 00:42:36;;;;;;;21.83;8.00;;;;;;;-145.69;73.62;73504.25;5072579;28;20286;-74
2022/03/10 00:45:06;;;;;;;22.83;7.80;;;;;;;-145.69;74.96;73532.13;5072572;28;20207;-74
2022/03/10 00:47:33;;;;;;;20.40;7.30;;;;;;;-145.69;76.61;73567.94;5072693;28;20213;-74
2022/03/10 00:49:59;;;;;;;15.77;6.80;;;;;;;-145.69;76.52;73577.91;5072443;28;20195;-74
2022/03/10 00:52:28;;;;;;;22.97;7.40;;;;;;;-145.69;76.08;73573.94;5072354;28;20210;-74
2022/03/10 00:54:55;;;;;;;17.90;6.93;;;;;;;-145.69;75.28;73571.94;5072510;28;20246;-74
2022/03/10 00:57:21;;;;;;;19.07;7.30;;;;;;;-145.69;74.07;73550.03;5072430;28;20690;-74
2022/03/10 00:59:48;;;;;;;16.83;6.43;;;;;;;-145.69;73.18;73528.13;5072324;28;20543;-74
2022/03/10 01:02:15;;;;;;;18.73;6.80;;;;;;;-145.69;73.83;73556.00;5072373;28;20616;-74
2022/03/10 01:04:43;;;;;;;17.53;6.40;;;;;;;-145.69;75.81;73585.88;5072284;28;20558;-74
2022/03/10 01:07:12;;;;;;;16.73;7.00;;;;;;;-145.69;75.23;73587.88;5072361;28;20214;-74
2022/03/10 01:09:38;;;;;;;13.00;5.33;;;;;;;-145.69;76.45;73589.84;5072256;28;20206;-74
2022/03/10 01:12:05;;;;;;;17.80;6.23;;;;;;;-145.69;76.68;73607.78;5072501;28;20237;-74
2022/03/10 01:14:34;;;;;;;17.93;6.00;;;;;;;-145.69;77.35;73623.69;5072094;28;20230;-74
2022/03/10 01:17:01;;;;;;;17.87;6.60;;;;;;;-145.69;76.92;73605.78;5072331;28;20237;-74
2022/03/10 01:19:29;;;;;;;15.03;6.07;;;;;;;-145.69;77.30;73653.56;5072118;28;20195;-74
2022/03/10 01:21:56;;;;;;;12.43;5.67;;;;;;;-145.69;77.10;73619.72;5074828;28;20252;-74
2022/03/10 01:24:22;;;;;;;16.83;6.30;;;;;;;-145.69;75.73;73583.88;5075836;28;20203;-74
2022/03/10 01:26:49;;;;;;;16.47;6.00;;;;;;;-145.69;77.06;73617.72;5075718;28;20203;-74
2022/03/10 01:29:15;;;;;;;15.03;6.10;;;;;;;-145.69;75.08;73571.94;5075548;28;20205;-74
2022/03/10 01:31:42;;;;;;;14.20;6.17;;;;;;;-145.69;74.73;73575.91;5075934;28;20199;-74
2022/03/10 01:34:08;;;;;;;16.90;5.73;;;;;;;-145.69;72.96;73542.06;5075258;28;20649;-74
2022/03/10 01:36:36;;;;;;;15.63;5.83;;;;;;;-145.69;72.46;73538.09;5075571;28;20203;-74
2022/03/10 01:39:04;;;;;;;17.87;5.90;;;;;;;-145.69;72.73;73540.06;5075582;28;20199;-74
2022/03/10 01:41:32;;;;;;;19.70;5.73;;;;;;;-145.69;71.44;73528.13;5075553;28;20301;-75
2022/03/10 01:43:59;;;;;;;13.33;5.47;;;;;;;-145.69;73.08;73558.00;5075280;28;20221;-75
2022/03/10 01:46:26;;;;;;;12.97;5.73;;;;;;;-145.69;72.74;73556.00;5075500;28;20210;-74
2022/03/10 01:48:52;;;;;;;14.70;5.73;;;;;;;-145.69;71.48;73548.03;5075289;28;20233;-74
2022/03/10 01:51:19;;;;;;;15.00;5.90;;;;;;;-145.69;72.10;73530.13;5075338;28;20216;-74
2022/03/10 01:53:48;;;;;;;14.97;5.97;;;;;;;-145.69;72.83;73544.06;5073349;28;20665;-74
2022/03/10 01:56:15;;;;;;;15.20;5.40;;;;;;;-145.69;71.32;73540.06;5055619;28;20743;-74
2022/03/10 01:58:42;;;;;;;15.77;6.27;;;;;;;-145.69;73.62;73560.00;5055278;28;20224;-74
2022/03/10 02:01:10;;;;;;;12.83;5.57;;;;;;;-145.69;73.69;73599.81;5055143;28;20206;-74
2022/03/10 02:03:37;;;;;;;14.57;5.57;;;;;;;-145.69;73.70;73607.78;5055081;28;20209;-75
2022/03/10 02:06:03;;;;;;;11.17;4.87;;;;;;;-145.69;73.62;73593.84;5054945;28;20229;-74
2022/03/10 02:11:15;;;;;;;17.80;6.00;;;;;;;-145.69;74.96;73615.72;5054952;28;20298;-74
2022/03/10 02:13:42;;;;;;;12.33;5.30;;;;;;;-145.69;75.70;73639.63;5054596;28;20227;-74
2022/03/10 02:18:55;;;;;;;12.17;5.03;;;;;;;-145.69;75.83;73633.66;5071710;28;20356;-74
2022/03/10 02:21:21;;;;;;;15.30;5.37;;;;;;;-145.69;73.10;73603.78;5074446;28;20206;-74
2022/03/10 02:23:49;;;;;;;14.93;5.70;;;;;;;-145.69;74.98;73617.72;5074865;28;20206;-74
2022/03/10 02:26:16;;;;;;;12.37;5.17;;;;;;;-145.69;76.63;73639.63;5074852;28;20199;-74
2022/03/10 02:28:43;;;;;;;17.33;5.13;;;;;;;-145.69;75.10;73627.69;5074622;28;20203;-74
2022/03/10 02:31:10;;;;;;;11.97;4.97;;;;;;;-145.69;76.58;73655.56;5074535;28;20230;-75
2022/03/10 02:33:37;;;;;;;11.77;5.10;;;;;;;-145.69;75.70;73617.72;5074066;28;20562;-74
2022/03/10 02:36:04;;;;;;;11.77;4.70;;;;;;;-145.69;76.26;73647.59;5074246;28;20585;-74
2022/03/10 02:38:31;;;;;;;13.00;5.00;;;;;;;-145.69;73.98;73617.72;5074480;28;20230;-74
2022/03/10 02:40:59;;;;;;;12.10;4.70;;;;;;;-145.69;71.94;73593.84;5074392;28;20195;-74
2022/03/10 02:43:26;;;;;;;10.83;5.20;;;;;;;-145.69;73.66;73611.75;5074247;28;20210;-75
2022/03/10 02:45:52;;;;;;;17.73;5.17;;;;;;;-145.69;73.01;73611.75;5074396;28;20205;-74
2022/03/10 02:48:19;;;;;;;15.73;6.33;;;;;;;-145.69;73.25;73625.69;5073331;28;20557;-74
2022/03/10 02:50:46;;;;;;;13.07;5.23;;;;;;;-145.69;73.84;73627.69;5073980;28;20547;-74
2022/03/10 02:53:16;;;;;;;11.70;4.97;;;;;;;-145.69;73.41;73623.69;5074322;28;20202;-74
2022/03/10 02:55:44;;;;;;;12.27;5.10;;;;;;;-145.69;73.96;73647.59;5073939;28;20207;-74
2022/03/10 02:58:16;;;;;;;13.90;5.33;;;;;;;-145.69;74.93;73661.53;5073903;28;20238;-74
2022/03/10 03:00:45;;;;;;;14.30;5.67;;;;;;;-145.69;75.09;73675.47;5073892;28;20198;-74
2022/03/10 03:03:17;;;;;;;11.47;5.00;;;;;;;-145.69;75.85;73675.47;5074249;28;20203;-74
2022/03/10 03:05:43;;;;;;;14.10;5.77;;;;;;;-145.69;74.56;73651.56;5073758;28;20198;-74
2022/03/10 03:08:12;;;;;;;11.60;5.23;;;;;;;-145.69;76.26;73663.53;5073622;28;20290;-74
2022/03/10 03:10:39;;;;;;;13.03;5.37;;;;;;;-145.69;76.15;73671.47;5073394;28;20206;-74
2022/03/10 03:13:06;;;;;;;14.30;5.63;;;;;;;-145.69;77.32;73683.44;5073518;28;20234;-74
2022/03/10 03:15:34;;;;;;;13.33;5.70;;;;;;;-145.69;78.46;73699.34;5073421;28;20397;-74
2022/03/10 03:18:01;;;;;;;13.73;5.53;;;;;;;-145.69;77.55;73703.34;5073267;28;20230;-74
2022/03/10 03:20:29;;;;;;;15.80;5.43;;;;;;;-145.69;76.86;73701.34;5073149;28;20664;-74
2022/03/10 03:22:56;;;;;;;14.47;5.77;;;;;;;-145.69;76.88;73679.44;5073692;28;20297;-74
2022/03/10 03:25:22;;;;;;;15.63;5.63;;;;;;;-145.69;76.68;73687.41;5073227;28;20297;-74
2022/03/10 03:27:48;;;;;;;16.43;5.90;;;;;;;-145.69;76.80;73713.28;5073222;28;20297;-75
2022/03/10 03:30:16;;;;;;;18.37;6.93;;;;;;;-145.69;78.00;73695.38;5072956;28;20213;-74
2022/03/10 03:32:45;;;;;;;16.27;5.37;;;;;;;-145.69;76.77;73707.31;5073425;28;20199;-74
2022/03/10 03:35:11;;;;;;;16.07;5.83;;;;;;;-145.69;77.41;73723.25;5073385;28;20205;-74
2022/03/10 03:37:38;;;;;;;19.10;6.47;;;;;;;-145.69;76.98;73707.31;5073402;28;20233;-74
2022/03/10 03:40:06;;;;;;;14.77;6.40;;;;;;;-145.69;78.38;73719.25;5072551;28;20689;-74
2022/03/10 03:42:34;;;;;;;14.40;6.03;;;;;;;-145.69;78.06;73719.25;5073016;28;20206;-74
2022/03/10 03:45:01;;;;;;;17.20;6.80;;;;;;;-145.69;75.91;73695.38;5072127;28;20202;-74
2022/03/10 03:47:27;;;;;;;18.73;6.53;;;;;;;-145.69;77.13;73727.22;5073220;28;20199;-74
2022/03/10 03:49:55;;;;;;;16.53;6.70;;;;;;;-145.69;78.20;73731.22;5073218;28;20566;-74
2022/03/10 03:52:22;;;;;;;22.37;6.50;;;;;;;-145.69;76.27;73701.34;5073217;28;20214;-73
2022/03/10 03:54:55;;;;;;;21.03;6.87;;;;;;;-145.69;77.70;73737.19;5072694;28;20199;-74
2022/03/10 03:57:23;;;;;;;16.57;6.43;;;;;;;-145.69;79.76;73765.06;5054845;28;20301;-74
2022/03/10 03:59:50;;;;;;;19.03;6.93;;;;;;;-145.69;80.90;73775.00;5052692;28;20199;-74
2022/03/10 04:02:16;;;;;;;18.93;6.70;;;;;;;-145.69;80.77;73796.91;5052957;28;20210;-74
2022/03/10 04:04:43;;;;;;;18.37;6.87;;;;;;;-145.69;80.05;73775.00;5052943;28;20214;-74
2022/03/10 04:07:11;;;;;;;19.43;7.00;;;;;;;-145.69;78.87;73743.16;5055814;28;20233;-74
2022/03/10 04:09:38;;;;;;;19.83;7.40;;;;;;;-145.69;78.35;73733.19;5072702;28;20199;-74
2022/03/10 04:12:05;;;;;;;18.23;7.30;;;;;;;-145.69;79.04;73727.22;5072729;28;20221;-74
2022/03/10 04:14:31;;;;;;;19.17;7.30;;;;;;;-145.69;76.52;73697.38;5072317;28;20252;-74
2022/03/10 04:16:58;;;;;;;20.83;7.50;;;;;;;-145.69;76.54;73689.41;5072879;28;20206;-74
2022/03/10 04:19:24;;;;;;;19.27;6.90;;;;;;;-145.69;78.43;73699.34;5072470;28;20231;-74
2022/03/10 04:21:52;;;;;;;22.70;6.93;;;;;;;-145.69;77.39;73705.34;5072776;28;20206;-74
2022/03/10 04:24:20;;;;;;;25.70;7.67;;;;;;;-145.69;77.84;73701.34;5072558;28;20654;-74
2022/03/10 04:26:47;;;;;;;21.40;7.70;;;;;;;-145.69;78.36;73735.19;5072734;28;20588;-74
2022/03/10 04:29:14;;;;;;;18.90;7.40;;;;;;;-145.69;78.85;73761.06;5072607;28;20202;-74
2022/03/10 04:31:41;;;;;;;24.50;7.53;;;;;;;-145.69;78.63;73773.03;5072575;28;20202;-73
2022/03/10 04:34:07;;;;;;;19.40;7.23;;;;;;;-145.69;80.25;73781.00;5072636;28;20527;-74
2022/03/10 04:36:33;;;;;;;20.30;7.57;;;;;;;-145.69;79.56;73759.09;5072789;28;20207;-74
2022/03/10 04:39:03;;;;;;;19.83;7.13;;;;;;;-145.69;77.85;73727.22;5071906;28;20226;-73
2022/03/10 04:41:31;;;;;;;16.13;6.40;;;;;;;-145.69;78.13;73735.19;5072674;28;20662;-74
2022/03/10 04:43:58;;;;;;;16.80;6.80;;;;;;;-145.69;76.39;73725.25;5072109;28;20791;-74
2022/03/10 04:46:24;;;;;;;19.50;7.17;;;;;;;-145.69;76.78;73723.25;5072613;28;20210;-74
2022/03/10 04:48:54;;;;;;;27.63;9.00;;;;;;;-145.69;77.21;73705.34;5072703;28;20199;-74
2022/03/10 04:51:20;;;;;;;22.37;7.87;;;;;;;-145.69;75.97;73663.53;5072407;28;20199;-74
2022/03/10 04:53:47;;;;;;;24.37;7.73;;;;;;;-145.69;75.92;73681.44;5072535;28;20205;-74
2022/03/10 04:56:14;;;;;;;25.53;7.80;;;;;;;-145.69;76.99;73699.34;5074205;28;20264;-74
2022/03/10 04:58:42;;;;;;;22.23;7.77;;;;;;;-145.69;77.42;73719.25;5076486;28;20230;-74
2022/03/10 05:01:13;;;;;;;20.33;7.70;;;;;;;-145.69;78.38;73719.25;5076089;28;20232;-74
2022/03/10 05:03:39;;;;;;;23.17;7.77;;;;;;;-145.69;78.50;73741.16;5075687;28;20585;-74
2022/03/10 05:06:06;;;;;;;17.23;7.73;;;;;;;-145.69;79.21;73743.16;5076329;28;20203;-74
2022/03/10 05:08:33;;;;;;;25.37;8.10;;;;;;;-145.69;78.74;73739.19;5075748;28;20199;-74
2022/03/10 05:10:59;;;;;;;21.73;7.27;;;;;;;-145.69;78.96;73743.16;5076134;28;20609;-74
2022/03/10 05:13:26;;;;;;;19.90;7.20;;;;;;;-145.69;81.08;73771.03;5075776;28;20230;-74
2022/03/10 05:15:54;;;;;;;23.80;8.57;;;;;;;-145.69;80.98;73779.00;5075451;28;20821;-74
2022/03/10 05:18:20;;;;;;;24.57;7.97;;;;;;;-145.69;81.24;73777.00;5075840;28;20228;-74
2022/03/10 05:20:49;;;;;;;18.80;7.37;;;;;;;-145.69;81.98;73771.03;5075737;28;20202;-74
2022/03/10 05:23:15;;;;;;;20.23;7.27;;;;;;;-145.69;80.77;73729.22;5076157;28;20206;-74
2022/03/10 05:25:42;;;;;;;20.93;8.37;;;;;;;-145.69;79.02;73667.50;5076018;28;20541;-74
2022/03/10 05:28:13;;;;;;;19.63;7.83;;;;;;;-145.69;79.96;73675.47;5075869;28;20206;-74
2022/03/10 05:30:40;;;;;;;22.00;8.37;;;;;;;-145.69;79.76;73667.50;5075591;28;20202;-74
2022/03/10 05:33:08;;;;;;;23.63;7.97;;;;;;;-145.69;80.38;73683.44;5075547;28;20233;-74
2022/03/10 05:35:34;;;;;;;20.57;7.37;;;;;;;-145.69;80.68;73691.38;5075463;28;20260;-74
2022/03/10 05:38:03;;;;;;;24.67;8.80;;;;;;;-145.69;82.48;73699.34;5075332;28;20285;-74
2022/03/10 05:40:30;;;;;;;23.23;8.77;;;;;;;-145.69;81.79;73669.50;5075687;28;20252;-73
2022/03/10 05:42:57;;;;;;;19.47;7.90;;;;;;;-145.69;81.04;73667.50;5075467;28;20210;-73
2022/03/10 05:45:24;;;;;;;28.23;8.77;;;;;;;-145.69;80.71;73643.59;5075106;28;20203;-73
2022/03/10 05:47:52;;;;;;;24.93;8.37;;;;;;;-145.69;78.70;73603.78;5075217;28;20206;-73
2022/03/10 05:50:22;;;;;;;22.13;7.50;;;;;;;-145.69;79.04;73589.84;5075557;28;20658;-73
2022/03/10 05:52:48;;;;;;;25.30;8.13;;;;;;;-145.69;77.34;73556.00;5075198;28;20229;-73
2022/03/10 05:55:16;;;;;;;25.30;8.73;;;;;;;-145.69;76.71;73540.06;5075134;28;20441;-74
2022/03/10 05:57:43;;;;;;;18.83;8.03;;;;;;;-145.69;77.76;73540.06;5074990;28;20205;-75
2022/03/10 06:00:12;;;;;;;24.43;8.27;;;;;;;-145.69;76.65;73532.13;5075217;28;20624;-74
2022/03/10 06:02:39;;;;;;;23.93;8.13;;;;;;;-145.69;77.14;73560.00;5057448;28;20650;-73
2022/03/10 06:05:06;;;;;;;21.17;7.97;;;;;;;-145.69;77.20;73548.03;5054932;28;20211;-73
2022/03/10 06:07:34;;;;;;;30.33;8.47;;;;;;;-145.69;77.00;73560.00;5058719;28;20209;-73
2022/03/10 06:10:03;;;;;;;23.17;8.13;;;;;;;-145.69;77.11;73550.03;5074674;28;20195;-73
2022/03/10 06:12:29;;;;;;;23.13;8.57;;;;;;;-145.69;76.68;73532.13;5075016;28;20210;-73
2022/03/10 06:14:57;;;;;;;24.50;8.50;;;;;;;-145.69;75.61;73516.19;5075287;28;20203;-73
2022/03/10 06:17:24;;;;;;;23.67;8.60;;;;;;;-145.69;75.55;73508.22;5074899;28;20202;-73
2022/03/10 06:19:51;;;;;;;24.40;8.83;;;;;;;-145.69;75.55;73516.19;5074449;28;20672;-74
2022/03/10 06:22:17;;;;;;;23.63;9.03;;;;;;;-145.69;75.33;73496.28;5074526;28;20203;-73
2022/03/10 06:24:46;;;;;;;37.53;9.80;;;;;;;-145.69;75.18;73488.31;5074629;28;20202;-74
2022/03/10 06:27:13;;;;;;;27.53;8.97;;;;;;;-145.69;73.70;73446.50;5074398;28;20285;-73
2022/03/10 06:29:39;;;;;;;26.00;9.30;;;;;;;-145.69;72.93;73454.47;5074751;28;20206;-74
2022/03/10 06:32:06;;;;;;;30.27;9.00;;;;;;;-145.69;73.97;73444.50;5074689;28;20203;-73
2022/03/10 06:34:37;;;;;;;24.90;9.47;;;;;;;-145.69;73.98;73420.63;5074489;28;20213;-74
2022/03/10 06:37:04;;;;;;;19.67;8.90;;;;;;;-145.69;72.81;73440.53;5074313;28;20202;-74
2022/03/10 06:39:30;;;;;;;23.30;8.60;;;;;;;-145.69;74.66;73470.41;5074338;28;20231;-74
2022/03/10 06:41:58;;;;;;;25.70;9.47;;;;;;;-145.69;76.71;73484.34;5074445;28;20207;-73
2022/03/10 06:44:25;;;;;;;26.07;9.70;;;;;;;-145.69;78.03;73508.22;5074129;28;20606;-73
2022/03/10 06:46:52;;;;;;;27.13;9.10;;;;;;;-145.69;78.25;73504.25;5074362;28;20206;-73
2022/03/10 06:49:18;;;;;;;27.20;9.27;;;;;;;-145.69;79.16;73506.22;5074317;28;20550;-74
2022/03/10 06:51:45;;;;;;;27.73;10.33;;;;;;;-145.69;79.44;73492.28;5074132;28;20289;-73
2022/03/10 06:54:12;;;;;;;36.97;10.63;;;;;;;-145.69;77.75;73470.41;5073992;28;20205;-74
2022/03/10 06:56:38;;;;;;;25.90;9.67;;;;;;;-145.69;76.89;73462.44;5074164;28;20210;-74
2022/03/10 06:59:06;;;;;;;27.17;10.57;;;;;;;-145.69;78.82;73468.41;5073993;28;20300;-74
2022/03/10 07:01:34;;;;;;;27.60;9.53;;;;;;;-145.69;75.51;73446.50;5073948;28;20469;-74
2022/03/10 07:04:01;;;;;;;24.17;9.73;;;;;;;-145.69;75.81;73438.53;5073900;28;20205;-74
2022/03/10 07:06:28;;;;;;;28.20;10.20;;;;;;;-145.69;74.36;73436.56;5073832;28;20199;-74
2022/03/10 07:08:55;;;;;;;34.00;10.15;;;;;;;-145.69;74.99;73392.75;5073349;28;20094;-74
2022/03/10 07:11:21;;;;;;;25.23;9.70;;;;;;;-145.69;74.26;73384.78;5074055;28;20228;-74
2022/03/10 07:13:48;;;;;;;24.43;9.30;;;;;;;-145.69;70.97;73325.06;5073507;28;20234;-74
2022/03/10 07:16:16;;;;;;;29.17;9.10;;;;;;;-145.69;69.13;73289.22;5073606;28;20249;-74
2022/03/10 07:18:42;;;;;;;25.07;8.47;;;;;;;-145.69;66.24;73233.50;5073095;28;20321;-74
2022/03/10 07:21:09;;;;;;;25.07;8.73;;;;;;;-145.69;65.15;73189.69;5073556;28;20202;-74
2022/03/10 07:23:35;;;;;;;24.47;7.53;;;;;;;-145.69;63.19;73173.75;5073690;28;20652;-75
2022/03/10 07:26:02;;;;;;;23.77;8.07;;;;;;;-145.69;60.64;73102.09;5073222;28;20692;-74
2022/03/10 07:28:29;;;;;;;22.43;8.33;;;;;;;-145.69;58.06;73070.25;5073393;28;20199;-75
2022/03/10 07:30:55;;;;;;;23.97;8.47;;;;;;;-145.69;57.58;73046.34;5073391;28;20277;-75
2022/03/10 07:33:23;;;;;;;22.83;8.43;;;;;;;-145.69;57.70;73014.50;5073414;28;20206;-75
2022/03/10 07:35:50;;;;;;;25.33;8.17;;;;;;;-145.69;55.31;72982.66;5073038;28;20399;-75
2022/03/10 07:38:16;;;;;;;22.37;8.53;;;;;;;-145.69;55.31;72976.69;5072740;28;20194;-74
2022/03/10 07:40:42;;;;;;;20.03;7.93;;;;;;;-145.69;52.87;72936.88;5073429;28;20258;-75
2022/03/10 07:43:09;;;;;;;23.80;8.50;;;;;;;-145.69;53.45;72918.97;5073424;28;20199;-75
2022/03/10 07:45:35;;;;;;;23.63;8.60;;;;;;;-145.69;53.73;72899.06;5073410;28;20205;-74
2022/03/10 07:48:02;;;;;;;21.07;8.60;;;;;;;-145.69;52.62;72889.09;5073170;28;20205;-76
2022/03/10 07:50:30;;;;;;;27.13;8.70;;;;;;;-145.69;51.58;72863.22;5073155;28;20213;-78
2022/03/10 07:52:57;;;;;;;25.80;8.87;;;;;;;-145.69;51.40;72851.28;5073406;28;20297;-76
2022/03/10 07:55:23;;;;;;;24.30;8.63;;;;;;;-145.69;51.30;72815.44;5067230;28;20206;-77
2022/03/10 07:57:50;;;;;;;21.13;8.57;;;;;;;-145.69;51.13;72803.50;5053220;28;20210;-76
2022/03/10 08:00:16;;;;;;;23.47;8.20;;;;;;;-145.69;49.67;72793.56;5052965;28;20227;-77
2022/03/10 08:02:43;;;;;;;20.93;7.37;;;;;;;-145.69;49.17;72775.63;5053068;28;20222;-77
2022/03/10 08:05:10;;;;;;;21.90;7.83;;;;;;;-145.69;48.57;72763.69;5052832;28;20207;-77
2022/03/10 08:07:41;;;;;;;21.13;7.43;;;;;;;-145.69;46.17;72735.81;5061895;28;20203;-76
2022/03/10 08:10:08;;;;;;;17.80;7.00;;;;;;;-145.69;46.30;72721.88;5073007;28;20202;-77
2022/03/10 08:12:35;;;;;;;15.27;6.33;;;;;;;-145.69;45.09;72707.97;5072819;28;20195;-77
2022/03/10 08:15:04;;;;;;;23.10;7.23;;;;;;;-145.69;43.06;72670.13;5072904;28;20201;-78
2022/03/10 08:17:31;;;;;;;19.23;7.20;;;;;;;-145.69;44.02;72670.13;5072638;28;20658;-77
2022/03/10 08:19:58;;;;;;;16.37;7.10;;;;;;;-145.69;43.27;72668.16;5072654;28;20226;-77
2022/03/10 08:22:25;;;;;;;19.67;7.27;;;;;;;-145.69;42.98;72638.28;5072991;28;20289;-76
2022/03/10 08:24:53;;;;;;;17.93;6.43;;;;;;;-145.69;41.56;72624.34;5072876;28;20234;-76
2022/03/10 08:27:19;;;;;;;21.33;6.23;;;;;;;-145.69;41.43;72610.44;5072941;28;20204;-78
2022/03/10 08:29:46;;;;;;;13.90;5.73;;;;;;;-145.69;40.39;72592.50;5073857;28;20645;-76
2022/03/10 08:32:13;;;;;;;12.93;6.33;;;;;;;-145.69;40.45;72596.50;5076989;28;20206;-77
2022/03/10 08:34:40;;;;;;;12.33;5.93;;;;;;;-145.69;38.90;72570.63;5077038;28;20205;-76
2022/03/10 08:37:07;;;;;;;14.40;5.83;;;;;;;-145.69;38.04;72560.66;5076780;28;20248;-76
2022/03/10 08:39:34;;;;;;;13.77;6.07;;;;;;;-145.69;39.54;72552.69;5076513;28;20586;-76
2022/03/10 08:42:02;;;;;;;14.20;5.93;;;;;;;-145.69;38.67;72532.78;5076630;28;20331;-76
2022/03/10 08:44:28;;;;;;;11.33;5.50;;;;;;;-145.69;38.21;72528.81;5076794;28;20202;-76
2022/03/10 08:46:55;;;;;;;12.07;5.33;;;;;;;-145.69;37.68;72510.91;5076518;28;20201;-76
2022/03/10 08:49:21;;;;;;;12.47;6.03;;;;;;;-145.69;37.64;72504.94;5076884;28;20205;-76
2022/03/10 08:51:49;;;;;;;16.53;5.93;;;;;;;-145.69;38.20;72508.91;5076675;28;20219;-76
2022/03/10 08:54:24;;;;;;;11.07;5.10;;;;;;;-145.69;38.12;72502.94;5076624;28;20205;-76
2022/03/10 08:56:54;;;;;;;14.17;4.83;;;;;;;-145.69;37.28;72498.97;5076601;28;20205;-76
2022/03/10 08:59:22;;;;;;;11.97;5.47;;;;;;;-145.69;37.67;72494.97;5074804;28;20313;-78
2022/03/10 09:01:50;;;;;;;12.33;5.47;;;;;;;-145.69;37.45;72496.97;5075101;28;20199;-76
2022/03/10 09:04:23;;;;;;;12.93;5.37;;;;;;;-145.69;36.89;72453.19;5076412;28;20251;-77
2022/03/10 09:06:50;;;;;;;12.27;4.83;;;;;;;-145.69;37.82;72473.09;5076521;28;20294;-78
2022/03/10 09:09:17;;;;;;;10.70;4.57;;;;;;;-145.69;38.20;72451.19;5076086;28;20213;-78
2022/03/10 09:11:44;;;;;;;10.90;4.50;;;;;;;-145.69;37.32;72457.16;5075794;28;20234;-77
2022/03/10 09:14:10;;;;;;;12.33;4.23;;;;;;;-145.69;37.24;72449.19;5076157;28;20231;-77
2022/03/10 09:16:44;;;;;;;9.40;4.10;;;;;;;-145.69;38.04;72421.34;5076100;28;20562;-76
2022/03/10 09:19:13;;;;;;;9.00;3.60;;;;;;;-145.69;38.61;72421.34;5075941;28;20198;-76
2022/03/10 09:21:40;;;;;;;7.97;3.60;;;;;;;-145.69;36.93;72397.44;5076108;28;20202;-77
2022/03/10 09:24:07;;;;;;;8.83;3.47;;;;;;;-145.69;37.68;72385.50;5075787;28;20547;-77
2022/03/10 09:26:33;;;;;;;7.30;3.37;;;;;;;-145.69;37.69;72377.53;5075719;28;20199;-76
2022/03/10 09:29:00;;;;;;;6.37;2.77;;;;;;;-145.69;38.06;72373.56;5075655;28;20209;-76
2022/03/10 09:31:27;;;;;;;5.50;2.53;;;;;;;-145.69;37.30;72365.59;5075692;28;20297;-77
2022/03/10 09:33:55;;;;;;;6.83;2.87;;;;;;;-145.69;38.04;72361.63;5075693;28;20207;-76
2022/03/10 09:36:21;;;;;;;24.60;3.60;;;;;;;-145.69;36.52;72349.69;5075928;28;20203;-77
2022/03/10 09:38:48;;;;;;;12.47;2.83;;;;;;;-145.69;37.35;72325.81;5074613;28;20665;-76
2022/03/10 09:41:17;;;;;;;5.20;2.77;;;;;;;-145.69;35.98;72317.84;5074728;28;20693;-76
2022/03/10 09:43:43;;;;;;;4.97;2.27;;;;;;;-145.69;36.27;72309.88;5075460;28;20202;-77
2022/03/10 09:46:10;;;;;;;3.80;2.27;;;;;;;-145.69;35.70;72305.91;5075532;28;20199;-76
2022/03/10 09:48:37;;;;;;;4.37;2.37;;;;;;;-145.69;36.09;72295.94;5075490;28;20214;-75
2022/03/10 09:51:05;;;;;;;4.40;2.43;;;;;;;-145.69;35.53;72274.06;5075734;28;20194;-76
2022/03/10 09:53:34;;;;;;;5.63;2.60;;;;;;;-145.69;36.43;72270.06;5075163;28;20214;-76
2022/03/10 09:56:01;;;;;;;6.90;2.53;;;;;;;-145.69;35.71;72282.00;5073721;28;20210;-77
2022/03/10 09:58:27;;;;;;;3.97;2.30;;;;;;;-145.69;35.83;72276.03;5072975;28;20290;-76
2022/03/10 10:00:59;;;;;;;4.17;2.50;;;;;;;-145.69;35.40;72270.06;5075242;28;20230;-78
2022/03/10 10:03:25;;;;;;;3.63;1.80;;;;;;;-145.69;35.19;72268.06;5075055;28;20661;-78
2022/03/10 10:05:58;;;;;;;5.83;2.30;;;;;;;-145.69;35.17;72252.16;5074391;28;20198;-78
2022/03/10 10:08:26;;;;;;;3.47;2.00;;;;;;;-145.69;34.43;72250.16;5075212;28;20554;-78
2022/03/10 10:10:55;;;;;;;4.40;1.90;;;;;;;-145.69;34.21;72246.19;5075204;28;20207;-78
2022/03/10 10:13:26;;;;;;;3.33;2.03;;;;;;;-145.69;34.22;72242.22;5074904;28;20231;-78
2022/03/10 10:15:56;;;;;;;4.33;2.03;;;;;;;-145.69;33.92;72256.13;5074891;28;20202;-78
2022/03/10 10:18:23;;;;;;;7.23;2.00;;;;;;;-145.69;33.60;72250.16;5074767;28;20294;-78
2022/03/10 10:20:51;;;;;;;4.90;2.37;;;;;;;-145.69;34.14;72236.22;5073675;28;20313;-78
2022/03/10 10:23:23;;;;;;;6.93;2.20;;;;;;;-145.69;33.88;72244.19;5072755;28;20203;-78
2022/03/10 10:25:55;;;;;;;3.97;2.60;;;;;;;-145.69;34.15;72234.25;5070480;28;20206;-78
2022/03/10 10:28:27;;;;;;;4.97;2.73;;;;;;;-145.69;33.69;72214.34;5064870;28;20196;-78
2022/03/10 10:31:00;;;;;;;5.87;2.50;;;;;;;-145.69;32.59;72218.31;5067916;28;20210;-78
2022/03/10 10:33:27;;;;;;;2.63;1.80;;;;;;;-145.69;33.31;72202.41;5072327;28;20282;-78
2022/03/10 10:36:13;;;;;;;4.00;2.10;;;;;;;-145.69;33.16;72208.38;5063634;28;20667;-78
2022/03/10 10:38:40;;;;;;;4.50;2.60;;;;;;;-145.69;33.04;72210.38;5054239;28;20298;-78
2022/03/10 10:41:18;;;;;;;5.17;2.50;;;;;;;-145.69;32.54;72214.34;5054395;28;20231;-78
2022/03/10 10:43:47;;;;;;;5.13;2.70;;;;;;;-145.69;33.79;72170.56;5054585;28;20562;-79
2022/03/10 10:46:22;;;;;;;5.07;2.30;;;;;;;-145.69;33.84;72174.53;5054240;28;20658;-79
2022/03/10 10:48:49;;;;;;;5.97;2.60;;;;;;;-145.69;33.31;72156.63;5054518;28;20227;-78
2022/03/10 10:51:26;;;;;;;4.27;2.60;;;;;;;-145.69;33.00;72146.69;5054098;28;20597;-78
2022/03/10 10:53:54;;;;;;;5.43;2.60;;;;;;;-145.69;33.07;72150.66;5053108;28;20203;-78
2022/03/10 10:56:22;;;;;;;4.70;2.20;;;;;;;-145.69;32.41;72154.63;5054096;28;20666;-77
2022/03/10 10:58:49;;;;;;;4.57;2.10;;;;;;;-145.69;32.52;72142.69;5053466;28;21109;-78
2022/03/10 11:01:27;;;;;;;4.00;2.37;;;;;;;-145.69;32.57;72140.69;5054158;28;20223;-78
2022/03/10 11:03:54;;;;;;;3.70;1.60;;;;;;;-145.69;32.00;72134.72;5068374;28;20198;-78
2022/03/10 11:06:22;;;;;;;3.60;1.70;;;;;;;-145.69;32.23;72130.75;5073754;28;20202;-78
2022/03/10 11:08:49;;;;;;;3.77;1.87;;;;;;;-145.69;32.92;72114.81;5074040;28;20249;-78
2022/03/10 11:11:16;;;;;;;3.17;1.80;;;;;;;-145.69;32.09;72102.88;5073716;28;20672;-78
2022/03/10 11:13:44;;;;;;;3.60;1.60;;;;;;;-145.69;31.95;72098.91;5073657;28;20771;-78
2022/03/10 11:16:12;;;;;;;2.90;1.87;;;;;;;-145.69;31.52;72082.97;5073748;28;20202;-78